sensor_id;sensor_type;location;lat;lon;timestamp;temperature;humidity
12769;DHT22;6448;48.916;8.990;2022-12-18T00:00:04;-1.80;44.80
12769;DHT22;6448;48.916;8.990;2022-12-18T00:01:17;-1.80;44.90
12769;DHT22;6448;48.916;8.990;2022-12-18T00:02:18;-1.90;44.90
12769;DHT22;6448;48.916;8.990;2022-12-18T00:03:19;-1.90;45.00
12769;DHT22;6448;48.916;8.990;2022-12-18T00:04:22;-1.90;45.00
12769;DHT22;6448;48.916;8.990;2022-12-18T00:05:23;-1.90;45.00
12769;DHT22;6448;48.916;8.990;2022-12-18T00:06:26;-1.90;44.90
12769;DHT22;6448;48.916;8.990;2022-12-18T00:07:28;-1.90;44.90
12769;DHT22;6448;48.916;8.990;2022-12-18T00:08:29;-1.90;44.90
12769;DHT22;6448;48.916;8.990;2022-12-18T00:09:30;-1.90;44.90
12769;DHT22;6448;48.916;8.990;2022-12-18T00:10:31;-1.90;44.90
12769;DHT22;6448;48.916;8.990;2022-12-18T00:11:33;-1.90;45.00
12769;DHT22;6448;48.916;8.990;2022-12-18T00:12:34;-1.90;45.20
12769;DHT22;6448;48.916;8.990;2022-12-18T00:13:37;-1.90;45.00
12769;DHT22;6448;48.916;8.990;2022-12-18T00:14:38;-2.00;45.00
12769;DHT22;6448;48.916;8.990;2022-12-18T00:15:40;-1.90;45.00
12769;DHT22;6448;48.916;8.990;2022-12-18T00:16:43;-2.00;45.00
12769;DHT22;6448;48.916;8.990;2022-12-18T00:17:46;-2.00;45.00
12769;DHT22;6448;48.916;8.990;2022-12-18T00:18:47;-2.00;45.00
12769;DHT22;6448;48.916;8.990;2022-12-18T00:19:49;-2.00;45.00
12769;DHT22;6448;48.916;8.990;2022-12-18T00:20:51;-2.00;45.00
12769;DHT22;6448;48.916;8.990;2022-12-18T00:21:52;-2.00;45.00
12769;DHT22;6448;48.916;8.990;2022-12-18T00:22:54;-2.00;45.00
12769;DHT22;6448;48.916;8.990;2022-12-18T00:23:55;-2.00;45.00
12769;DHT22;6448;48.916;8.990;2022-12-18T00:24:57;-2.00;45.00
12769;DHT22;6448;48.916;8.990;2022-12-18T00:25:59;-2.00;45.00
12769;DHT22;6448;48.916;8.990;2022-12-18T00:27:01;-2.00;45.00
12769;DHT22;6448;48.916;8.990;2022-12-18T00:28:02;-2.00;45.00
12769;DHT22;6448;48.916;8.990;2022-12-18T00:29:07;-2.00;45.00
12769;DHT22;6448;48.916;8.990;2022-12-18T00:30:11;-2.00;45.00
12769;DHT22;6448;48.916;8.990;2022-12-18T00:31:14;-2.00;45.00
12769;DHT22;6448;48.916;8.990;2022-12-18T00:32:15;-2.00;45.00
12769;DHT22;6448;48.916;8.990;2022-12-18T00:33:17;-2.00;45.00
12769;DHT22;6448;48.916;8.990;2022-12-18T00:34:17;-2.10;45.00
12769;DHT22;6448;48.916;8.990;2022-12-18T00:35:19;-2.10;45.00
12769;DHT22;6448;48.916;8.990;2022-12-18T00:36:22;-2.10;45.10
12769;DHT22;6448;48.916;8.990;2022-12-18T00:37:26;-2.10;45.10
12769;DHT22;6448;48.916;8.990;2022-12-18T00:38:27;-2.10;45.10
12769;DHT22;6448;48.916;8.990;2022-12-18T00:39:29;-2.10;45.10
12769;DHT22;6448;48.916;8.990;2022-12-18T00:40:29;-2.10;45.10
12769;DHT22;6448;48.916;8.990;2022-12-18T00:41:32;-2.10;45.10
12769;DHT22;6448;48.916;8.990;2022-12-18T00:42:51;-2.10;45.10
12769;DHT22;6448;48.916;8.990;2022-12-18T00:43:58;-2.10;45.10
12769;DHT22;6448;48.916;8.990;2022-12-18T00:45:00;-2.10;45.10
12769;DHT22;6448;48.916;8.990;2022-12-18T00:46:02;-2.10;45.10
12769;DHT22;6448;48.916;8.990;2022-12-18T00:47:03;-2.10;45.10
12769;DHT22;6448;48.916;8.990;2022-12-18T00:48:05;-2.10;45.10
12769;DHT22;6448;48.916;8.990;2022-12-18T00:49:06;-2.10;45.10
12769;DHT22;6448;48.916;8.990;2022-12-18T00:50:09;-2.10;45.70
12769;DHT22;6448;48.916;8.990;2022-12-18T00:51:11;-2.10;45.10
12769;DHT22;6448;48.916;8.990;2022-12-18T00:52:12;-2.10;45.00
12769;DHT22;6448;48.916;8.990;2022-12-18T00:53:13;-2.10;44.80
12769;DHT22;6448;48.916;8.990;2022-12-18T00:54:16;-2.10;44.80
12769;DHT22;6448;48.916;8.990;2022-12-18T00:55:18;-2.10;44.70
12769;DHT22;6448;48.916;8.990;2022-12-18T00:56:21;-2.10;45.30
12769;DHT22;6448;48.916;8.990;2022-12-18T00:57:23;-2.10;44.60
12769;DHT22;6448;48.916;8.990;2022-12-18T00:58:24;-2.10;44.60
12769;DHT22;6448;48.916;8.990;2022-12-18T00:59:26;-2.10;44.60
12769;DHT22;6448;48.916;8.990;2022-12-18T01:00:28;-2.10;44.50
12769;DHT22;6448;48.916;8.990;2022-12-18T01:01:29;-2.10;44.40
12769;DHT22;6448;48.916;8.990;2022-12-18T01:02:30;-2.10;44.40
12769;DHT22;6448;48.916;8.990;2022-12-18T01:03:32;-2.10;44.40
12769;DHT22;6448;48.916;8.990;2022-12-18T01:04:34;-2.10;44.40
12769;DHT22;6448;48.916;8.990;2022-12-18T01:05:39;-2.20;44.40
12769;DHT22;6448;48.916;8.990;2022-12-18T01:06:40;-2.20;44.40
12769;DHT22;6448;48.916;8.990;2022-12-18T01:07:41;-2.20;44.50
12769;DHT22;6448;48.916;8.990;2022-12-18T01:08:42;-2.20;44.50
12769;DHT22;6448;48.916;8.990;2022-12-18T01:09:46;-2.20;44.60
12769;DHT22;6448;48.916;8.990;2022-12-18T01:10:47;-2.20;44.50
12769;DHT22;6448;48.916;8.990;2022-12-18T01:11:49;-2.20;44.50
12769;DHT22;6448;48.916;8.990;2022-12-18T01:12:51;-2.20;44.50
12769;DHT22;6448;48.916;8.990;2022-12-18T01:13:54;-2.20;44.50
12769;DHT22;6448;48.916;8.990;2022-12-18T01:14:56;-2.20;44.50
12769;DHT22;6448;48.916;8.990;2022-12-18T01:15:59;-2.20;44.50
12769;DHT22;6448;48.916;8.990;2022-12-18T01:17:00;-2.30;44.50
12769;DHT22;6448;48.916;8.990;2022-12-18T01:18:06;-2.20;44.60
12769;DHT22;6448;48.916;8.990;2022-12-18T01:19:07;-2.30;44.60
12769;DHT22;6448;48.916;8.990;2022-12-18T01:20:10;-2.30;44.60
12769;DHT22;6448;48.916;8.990;2022-12-18T01:21:14;-2.30;44.70
12769;DHT22;6448;48.916;8.990;2022-12-18T01:22:17;-2.30;44.70
12769;DHT22;6448;48.916;8.990;2022-12-18T01:23:19;-2.30;44.70
12769;DHT22;6448;48.916;8.990;2022-12-18T01:24:21;-2.30;44.80
12769;DHT22;6448;48.916;8.990;2022-12-18T01:25:23;-2.30;44.80
12769;DHT22;6448;48.916;8.990;2022-12-18T01:26:25;-2.30;44.80
12769;DHT22;6448;48.916;8.990;2022-12-18T01:27:30;-2.30;44.80
12769;DHT22;6448;48.916;8.990;2022-12-18T01:28:30;-2.30;44.80
12769;DHT22;6448;48.916;8.990;2022-12-18T01:29:32;-2.30;44.80
12769;DHT22;6448;48.916;8.990;2022-12-18T01:30:33;-2.30;44.90
12769;DHT22;6448;48.916;8.990;2022-12-18T01:31:37;-2.30;44.90
12769;DHT22;6448;48.916;8.990;2022-12-18T01:32:38;-2.30;44.90
12769;DHT22;6448;48.916;8.990;2022-12-18T01:33:40;-2.30;44.90
12769;DHT22;6448;48.916;8.990;2022-12-18T01:34:40;-2.30;44.90
12769;DHT22;6448;48.916;8.990;2022-12-18T01:35:43;-2.30;44.80
12769;DHT22;6448;48.916;8.990;2022-12-18T01:36:44;-2.30;44.80
12769;DHT22;6448;48.916;8.990;2022-12-18T01:37:46;-2.30;44.80
12769;DHT22;6448;48.916;8.990;2022-12-18T01:38:47;-2.30;44.80
12769;DHT22;6448;48.916;8.990;2022-12-18T01:39:49;-2.30;44.90
12769;DHT22;6448;48.916;8.990;2022-12-18T01:40:56;-2.30;44.90
12769;DHT22;6448;48.916;8.990;2022-12-18T01:41:58;-2.40;44.80
12769;DHT22;6448;48.916;8.990;2022-12-18T01:43:08;-2.40;44.80
12769;DHT22;6448;48.916;8.990;2022-12-18T01:45:44;-2.40;44.80
12769;DHT22;6448;48.916;8.990;2022-12-18T01:46:49;-2.30;44.80
12769;DHT22;6448;48.916;8.990;2022-12-18T01:47:51;-2.40;44.80
12769;DHT22;6448;48.916;8.990;2022-12-18T01:48:57;-2.40;44.90
12769;DHT22;6448;48.916;8.990;2022-12-18T01:50:03;-2.40;45.00
12769;DHT22;6448;48.916;8.990;2022-12-18T01:51:07;-2.20;45.10
12769;DHT22;6448;48.916;8.990;2022-12-18T01:52:09;-2.40;44.90
12769;DHT22;6448;48.916;8.990;2022-12-18T01:53:13;-2.40;44.80
12769;DHT22;6448;48.916;8.990;2022-12-18T01:54:14;-2.40;44.80
12769;DHT22;6448;48.916;8.990;2022-12-18T01:55:18;-2.40;44.80
12769;DHT22;6448;48.916;8.990;2022-12-18T01:56:21;-2.40;44.80
12769;DHT22;6448;48.916;8.990;2022-12-18T01:57:25;-2.40;44.90
12769;DHT22;6448;48.916;8.990;2022-12-18T01:58:30;-2.40;45.00
12769;DHT22;6448;48.916;8.990;2022-12-18T01:59:35;-2.40;45.10
12769;DHT22;6448;48.916;8.990;2022-12-18T02:00:37;-2.40;45.10
12769;DHT22;6448;48.916;8.990;2022-12-18T02:01:39;-2.40;45.10
12769;DHT22;6448;48.916;8.990;2022-12-18T02:02:43;-2.40;45.10
12769;DHT22;6448;48.916;8.990;2022-12-18T02:03:46;-2.40;45.20
12769;DHT22;6448;48.916;8.990;2022-12-18T02:04:49;-2.40;45.30
12769;DHT22;6448;48.916;8.990;2022-12-18T02:05:59;-2.40;45.20
12769;DHT22;6448;48.916;8.990;2022-12-18T02:07:06;-2.40;45.30
12769;DHT22;6448;48.916;8.990;2022-12-18T02:08:15;-2.40;45.20
12769;DHT22;6448;48.916;8.990;2022-12-18T02:09:20;-2.40;45.30
12769;DHT22;6448;48.916;8.990;2022-12-18T02:10:27;-2.40;45.30
12769;DHT22;6448;48.916;8.990;2022-12-18T02:11:39;-2.40;45.30
12769;DHT22;6448;48.916;8.990;2022-12-18T02:12:48;-2.40;45.30
12769;DHT22;6448;48.916;8.990;2022-12-18T02:13:57;-2.40;45.40
12769;DHT22;6448;48.916;8.990;2022-12-18T02:15:09;-2.40;45.40
12769;DHT22;6448;48.916;8.990;2022-12-18T02:16:18;-2.40;45.50
12769;DHT22;6448;48.916;8.990;2022-12-18T02:17:23;-2.40;45.60
12769;DHT22;6448;48.916;8.990;2022-12-18T02:18:30;-2.40;45.70
12769;DHT22;6448;48.916;8.990;2022-12-18T02:19:55;-2.40;45.70
12769;DHT22;6448;48.916;8.990;2022-12-18T02:21:08;-2.40;45.70
12769;DHT22;6448;48.916;8.990;2022-12-18T02:22:26;-2.40;45.80
12769;DHT22;6448;48.916;8.990;2022-12-18T02:23:42;-2.40;45.80
12769;DHT22;6448;48.916;8.990;2022-12-18T02:24:56;-2.40;45.80
12769;DHT22;6448;48.916;8.990;2022-12-18T02:26:21;-2.40;45.80
12769;DHT22;6448;48.916;8.990;2022-12-18T02:27:27;-2.40;45.80
12769;DHT22;6448;48.916;8.990;2022-12-18T02:28:30;-2.40;45.90
12769;DHT22;6448;48.916;8.990;2022-12-18T02:29:39;-2.40;46.00
12769;DHT22;6448;48.916;8.990;2022-12-18T02:30:42;-2.40;46.00
12769;DHT22;6448;48.916;8.990;2022-12-18T02:31:50;-2.40;46.10
12769;DHT22;6448;48.916;8.990;2022-12-18T02:32:53;-2.40;46.20
12769;DHT22;6448;48.916;8.990;2022-12-18T02:34:00;-2.40;46.20
12769;DHT22;6448;48.916;8.990;2022-12-18T02:35:05;-2.40;46.20
12769;DHT22;6448;48.916;8.990;2022-12-18T02:36:08;-2.40;46.20
12769;DHT22;6448;48.916;8.990;2022-12-18T02:37:13;-2.40;46.30
12769;DHT22;6448;48.916;8.990;2022-12-18T02:38:17;-2.40;46.40
12769;DHT22;6448;48.916;8.990;2022-12-18T02:39:21;-2.40;46.40
12769;DHT22;6448;48.916;8.990;2022-12-18T02:40:32;-2.40;46.50
12769;DHT22;6448;48.916;8.990;2022-12-18T02:41:35;-2.40;46.60
12769;DHT22;6448;48.916;8.990;2022-12-18T02:42:39;-2.40;46.60
12769;DHT22;6448;48.916;8.990;2022-12-18T02:43:52;-2.40;46.60
12769;DHT22;6448;48.916;8.990;2022-12-18T02:44:55;-2.40;46.60
12769;DHT22;6448;48.916;8.990;2022-12-18T02:46:00;-2.40;46.60
12769;DHT22;6448;48.916;8.990;2022-12-18T02:47:05;-2.40;46.60
12769;DHT22;6448;48.916;8.990;2022-12-18T02:48:07;-2.40;46.50
12769;DHT22;6448;48.916;8.990;2022-12-18T02:49:21;-2.40;46.60
12769;DHT22;6448;48.916;8.990;2022-12-18T02:50:31;-2.40;46.60
12769;DHT22;6448;48.916;8.990;2022-12-18T02:51:43;-2.40;46.70
12769;DHT22;6448;48.916;8.990;2022-12-18T02:52:53;-2.40;46.80
12769;DHT22;6448;48.916;8.990;2022-12-18T02:54:01;-2.40;46.90
12769;DHT22;6448;48.916;8.990;2022-12-18T02:55:15;-2.40;46.90
12769;DHT22;6448;48.916;8.990;2022-12-18T02:56:27;-2.40;47.00
12769;DHT22;6448;48.916;8.990;2022-12-18T02:57:34;-2.40;47.00
12769;DHT22;6448;48.916;8.990;2022-12-18T02:58:44;-2.40;47.10
12769;DHT22;6448;48.916;8.990;2022-12-18T03:00:03;-2.40;47.10
12769;DHT22;6448;48.916;8.990;2022-12-18T03:01:10;-2.40;47.20
12769;DHT22;6448;48.916;8.990;2022-12-18T03:02:19;-2.40;47.30
12769;DHT22;6448;48.916;8.990;2022-12-18T03:03:25;-2.40;47.40
12769;DHT22;6448;48.916;8.990;2022-12-18T03:04:33;-2.40;47.40
12769;DHT22;6448;48.916;8.990;2022-12-18T03:05:40;-2.40;47.50
12769;DHT22;6448;48.916;8.990;2022-12-18T03:06:47;-2.30;47.60
12769;DHT22;6448;48.916;8.990;2022-12-18T03:07:52;-2.30;47.60
12769;DHT22;6448;48.916;8.990;2022-12-18T03:08:59;-2.30;47.80
12769;DHT22;6448;48.916;8.990;2022-12-18T03:10:02;-2.30;47.80
12769;DHT22;6448;48.916;8.990;2022-12-18T03:11:05;-2.30;47.80
12769;DHT22;6448;48.916;8.990;2022-12-18T03:12:11;-2.30;47.80
12769;DHT22;6448;48.916;8.990;2022-12-18T03:13:27;-2.40;47.70
12769;DHT22;6448;48.916;8.990;2022-12-18T03:14:32;-2.30;47.70
12769;DHT22;6448;48.916;8.990;2022-12-18T03:15:37;-2.30;47.70
12769;DHT22;6448;48.916;8.990;2022-12-18T03:16:44;-2.30;47.70
12769;DHT22;6448;48.916;8.990;2022-12-18T03:17:50;-2.30;47.70
12769;DHT22;6448;48.916;8.990;2022-12-18T03:18:54;-2.30;48.40
12769;DHT22;6448;48.916;8.990;2022-12-18T03:20:03;-2.30;47.90
12769;DHT22;6448;48.916;8.990;2022-12-18T03:21:08;-2.30;48.00
12769;DHT22;6448;48.916;8.990;2022-12-18T03:22:12;-2.30;48.00
12769;DHT22;6448;48.916;8.990;2022-12-18T03:23:22;-2.30;48.00
12769;DHT22;6448;48.916;8.990;2022-12-18T03:24:28;-2.30;48.10
12769;DHT22;6448;48.916;8.990;2022-12-18T03:25:33;-2.30;48.10
12769;DHT22;6448;48.916;8.990;2022-12-18T03:26:38;-2.30;48.10
12769;DHT22;6448;48.916;8.990;2022-12-18T03:27:46;-2.30;48.10
12769;DHT22;6448;48.916;8.990;2022-12-18T03:28:54;-2.30;48.10
12769;DHT22;6448;48.916;8.990;2022-12-18T03:30:03;-2.30;48.00
12769;DHT22;6448;48.916;8.990;2022-12-18T03:31:11;-2.30;48.10
12769;DHT22;6448;48.916;8.990;2022-12-18T03:32:16;-2.30;48.10
12769;DHT22;6448;48.916;8.990;2022-12-18T03:33:24;-2.30;48.10
12769;DHT22;6448;48.916;8.990;2022-12-18T03:34:31;-2.30;48.10
12769;DHT22;6448;48.916;8.990;2022-12-18T03:35:40;-2.30;48.00
12769;DHT22;6448;48.916;8.990;2022-12-18T03:36:42;-2.30;48.00
12769;DHT22;6448;48.916;8.990;2022-12-18T03:37:44;-2.30;48.00
12769;DHT22;6448;48.916;8.990;2022-12-18T03:38:45;-2.30;48.00
12769;DHT22;6448;48.916;8.990;2022-12-18T03:39:47;-2.30;48.00
12769;DHT22;6448;48.916;8.990;2022-12-18T03:40:54;-2.30;48.00
12769;DHT22;6448;48.916;8.990;2022-12-18T03:42:01;-2.30;48.00
12769;DHT22;6448;48.916;8.990;2022-12-18T03:43:20;-2.20;48.10
12769;DHT22;6448;48.916;8.990;2022-12-18T03:44:29;-2.30;48.70
12769;DHT22;6448;48.916;8.990;2022-12-18T03:45:34;-2.20;48.20
12769;DHT22;6448;48.916;8.990;2022-12-18T03:46:44;-2.20;48.20
12769;DHT22;6448;48.916;8.990;2022-12-18T03:47:56;-2.20;48.30
12769;DHT22;6448;48.916;8.990;2022-12-18T03:49:02;-2.20;48.30
12769;DHT22;6448;48.916;8.990;2022-12-18T03:50:13;-2.20;48.30
12769;DHT22;6448;48.916;8.990;2022-12-18T03:51:24;-2.20;48.30
12769;DHT22;6448;48.916;8.990;2022-12-18T03:52:31;-2.30;48.30
12769;DHT22;6448;48.916;8.990;2022-12-18T03:53:40;-2.20;48.40
12769;DHT22;6448;48.916;8.990;2022-12-18T03:54:45;-2.20;48.40
12769;DHT22;6448;48.916;8.990;2022-12-18T03:55:51;-2.20;48.30
12769;DHT22;6448;48.916;8.990;2022-12-18T03:56:58;-2.20;48.20
12769;DHT22;6448;48.916;8.990;2022-12-18T03:58:02;-2.30;48.10
12769;DHT22;6448;48.916;8.990;2022-12-18T03:59:16;-2.30;48.00
12769;DHT22;6448;48.916;8.990;2022-12-18T04:00:20;-2.30;48.00
12769;DHT22;6448;48.916;8.990;2022-12-18T04:01:38;-2.30;48.00
12769;DHT22;6448;48.916;8.990;2022-12-18T04:02:43;-2.30;48.00
12769;DHT22;6448;48.916;8.990;2022-12-18T04:03:49;-2.30;47.90
12769;DHT22;6448;48.916;8.990;2022-12-18T04:04:56;-2.30;48.00
12769;DHT22;6448;48.916;8.990;2022-12-18T04:06:00;-2.30;48.00
12769;DHT22;6448;48.916;8.990;2022-12-18T04:07:03;-2.30;48.00
12769;DHT22;6448;48.916;8.990;2022-12-18T04:08:08;-2.30;48.00
12769;DHT22;6448;48.916;8.990;2022-12-18T04:09:12;-2.30;48.00
12769;DHT22;6448;48.916;8.990;2022-12-18T04:10:18;-2.30;48.10
12769;DHT22;6448;48.916;8.990;2022-12-18T04:11:20;-2.30;48.00
12769;DHT22;6448;48.916;8.990;2022-12-18T04:12:24;-2.30;48.00
12769;DHT22;6448;48.916;8.990;2022-12-18T04:13:29;-2.30;48.10
12769;DHT22;6448;48.916;8.990;2022-12-18T04:14:33;-2.20;48.70
12769;DHT22;6448;48.916;8.990;2022-12-18T04:15:38;-2.30;48.10
12769;DHT22;6448;48.916;8.990;2022-12-18T04:16:44;-2.30;48.20
12769;DHT22;6448;48.916;8.990;2022-12-18T04:17:50;-2.20;48.30
12769;DHT22;6448;48.916;8.990;2022-12-18T04:18:55;-2.20;48.30
12769;DHT22;6448;48.916;8.990;2022-12-18T04:19:58;-2.20;48.30
12769;DHT22;6448;48.916;8.990;2022-12-18T04:21:00;-2.20;48.30
12769;DHT22;6448;48.916;8.990;2022-12-18T04:22:02;-2.20;48.20
12769;DHT22;6448;48.916;8.990;2022-12-18T04:23:09;-2.40;48.00
12769;DHT22;6448;48.916;8.990;2022-12-18T04:24:11;-2.20;48.10
12769;DHT22;6448;48.916;8.990;2022-12-18T04:25:19;-2.20;48.10
12769;DHT22;6448;48.916;8.990;2022-12-18T04:26:38;-2.20;48.00
12769;DHT22;6448;48.916;8.990;2022-12-18T04:27:48;-2.20;48.00
12769;DHT22;6448;48.916;8.990;2022-12-18T04:28:49;-2.20;47.90
12769;DHT22;6448;48.916;8.990;2022-12-18T04:29:50;-2.20;47.90
12769;DHT22;6448;48.916;8.990;2022-12-18T04:30:54;-2.20;47.80
12769;DHT22;6448;48.916;8.990;2022-12-18T04:31:56;-2.20;47.80
12769;DHT22;6448;48.916;8.990;2022-12-18T04:32:59;-2.20;47.80
12769;DHT22;6448;48.916;8.990;2022-12-18T04:34:02;-2.20;47.80
12769;DHT22;6448;48.916;8.990;2022-12-18T04:35:03;-2.30;47.70
12769;DHT22;6448;48.916;8.990;2022-12-18T04:36:07;-2.20;47.80
12769;DHT22;6448;48.916;8.990;2022-12-18T04:37:09;-2.20;47.80
12769;DHT22;6448;48.916;8.990;2022-12-18T04:38:12;-2.20;47.90
12769;DHT22;6448;48.916;8.990;2022-12-18T04:39:14;-2.20;47.90
12769;DHT22;6448;48.916;8.990;2022-12-18T04:40:16;-2.20;47.90
12769;DHT22;6448;48.916;8.990;2022-12-18T04:41:20;-2.20;47.90
12769;DHT22;6448;48.916;8.990;2022-12-18T04:42:23;-2.20;47.90
12769;DHT22;6448;48.916;8.990;2022-12-18T04:43:25;-2.20;47.90
12769;DHT22;6448;48.916;8.990;2022-12-18T04:44:26;-2.20;47.90
12769;DHT22;6448;48.916;8.990;2022-12-18T04:45:28;-2.20;47.90
12769;DHT22;6448;48.916;8.990;2022-12-18T04:46:30;-2.20;47.80
12769;DHT22;6448;48.916;8.990;2022-12-18T04:47:31;-2.20;47.80
12769;DHT22;6448;48.916;8.990;2022-12-18T04:48:33;-2.20;47.90
12769;DHT22;6448;48.916;8.990;2022-12-18T04:49:36;-2.20;48.00
12769;DHT22;6448;48.916;8.990;2022-12-18T04:50:37;-2.20;48.00
12769;DHT22;6448;48.916;8.990;2022-12-18T04:51:39;-2.20;48.10
12769;DHT22;6448;48.916;8.990;2022-12-18T04:52:39;-2.20;48.90
12769;DHT22;6448;48.916;8.990;2022-12-18T04:53:41;-2.20;48.40
12769;DHT22;6448;48.916;8.990;2022-12-18T04:54:42;-2.20;48.60
12769;DHT22;6448;48.916;8.990;2022-12-18T04:55:44;-2.20;48.90
12769;DHT22;6448;48.916;8.990;2022-12-18T04:56:44;-2.20;49.00
12769;DHT22;6448;48.916;8.990;2022-12-18T04:57:48;-2.20;49.10
12769;DHT22;6448;48.916;8.990;2022-12-18T04:58:49;-2.20;49.10
12769;DHT22;6448;48.916;8.990;2022-12-18T04:59:51;-2.20;49.30
12769;DHT22;6448;48.916;8.990;2022-12-18T05:00:51;-2.20;49.40
12769;DHT22;6448;48.916;8.990;2022-12-18T05:01:54;-2.20;49.40
12769;DHT22;6448;48.916;8.990;2022-12-18T05:02:55;-2.10;49.50
12769;DHT22;6448;48.916;8.990;2022-12-18T05:03:57;-2.10;49.60
12769;DHT22;6448;48.916;8.990;2022-12-18T05:04:58;-2.10;49.70
12769;DHT22;6448;48.916;8.990;2022-12-18T05:06:00;-2.10;49.70
12769;DHT22;6448;48.916;8.990;2022-12-18T05:07:00;-2.10;49.70
12769;DHT22;6448;48.916;8.990;2022-12-18T05:08:02;-2.10;49.70
12769;DHT22;6448;48.916;8.990;2022-12-18T05:09:03;-2.10;49.70
12769;DHT22;6448;48.916;8.990;2022-12-18T05:10:06;-2.00;49.70
12769;DHT22;6448;48.916;8.990;2022-12-18T05:11:09;-2.10;49.60
12769;DHT22;6448;48.916;8.990;2022-12-18T05:12:11;-2.10;49.60
12769;DHT22;6448;48.916;8.990;2022-12-18T05:13:11;-2.00;49.60
12769;DHT22;6448;48.916;8.990;2022-12-18T05:14:13;-2.00;49.60
12769;DHT22;6448;48.916;8.990;2022-12-18T05:15:14;-2.00;49.70
12769;DHT22;6448;48.916;8.990;2022-12-18T05:16:16;-2.00;49.80
12769;DHT22;6448;48.916;8.990;2022-12-18T05:17:19;-2.00;49.80
12769;DHT22;6448;48.916;8.990;2022-12-18T05:18:21;-2.00;49.90
12769;DHT22;6448;48.916;8.990;2022-12-18T05:19:22;-2.00;50.00
12769;DHT22;6448;48.916;8.990;2022-12-18T05:20:24;-2.00;50.10
12769;DHT22;6448;48.916;8.990;2022-12-18T05:21:25;-2.00;50.20
12769;DHT22;6448;48.916;8.990;2022-12-18T05:22:27;-2.00;50.30
12769;DHT22;6448;48.916;8.990;2022-12-18T05:23:28;-2.00;50.30
12769;DHT22;6448;48.916;8.990;2022-12-18T05:24:30;-1.90;50.40
12769;DHT22;6448;48.916;8.990;2022-12-18T05:25:30;-2.00;50.40
12769;DHT22;6448;48.916;8.990;2022-12-18T05:26:32;-1.90;50.60
12769;DHT22;6448;48.916;8.990;2022-12-18T05:27:33;-1.90;51.20
12769;DHT22;6448;48.916;8.990;2022-12-18T05:28:36;-1.90;50.60
12769;DHT22;6448;48.916;8.990;2022-12-18T05:29:37;-1.90;50.60
12769;DHT22;6448;48.916;8.990;2022-12-18T05:30:46;-1.90;50.60
12769;DHT22;6448;48.916;8.990;2022-12-18T05:31:47;-1.90;50.60
12769;DHT22;6448;48.916;8.990;2022-12-18T05:32:50;-1.90;50.70
12769;DHT22;6448;48.916;8.990;2022-12-18T05:33:51;-1.80;50.70
12769;DHT22;6448;48.916;8.990;2022-12-18T05:34:53;-1.90;50.80
12769;DHT22;6448;48.916;8.990;2022-12-18T05:35:55;-1.90;50.80
12769;DHT22;6448;48.916;8.990;2022-12-18T05:36:57;-1.90;50.80
12769;DHT22;6448;48.916;8.990;2022-12-18T05:37:58;-1.90;50.80
12769;DHT22;6448;48.916;8.990;2022-12-18T05:39:00;-1.80;50.80
12769;DHT22;6448;48.916;8.990;2022-12-18T05:40:01;-1.90;50.70
12769;DHT22;6448;48.916;8.990;2022-12-18T05:41:03;-1.90;50.70
12769;DHT22;6448;48.916;8.990;2022-12-18T05:42:04;-1.80;50.80
12769;DHT22;6448;48.916;8.990;2022-12-18T05:43:06;-1.80;50.80
12769;DHT22;6448;48.916;8.990;2022-12-18T05:44:06;-1.80;50.80
12769;DHT22;6448;48.916;8.990;2022-12-18T05:45:09;-1.80;50.80
12769;DHT22;6448;48.916;8.990;2022-12-18T05:46:12;-1.80;50.80
12769;DHT22;6448;48.916;8.990;2022-12-18T05:47:14;-1.80;50.70
12769;DHT22;6448;48.916;8.990;2022-12-18T05:48:16;-1.80;50.70
12769;DHT22;6448;48.916;8.990;2022-12-18T05:49:19;-1.80;50.70
12769;DHT22;6448;48.916;8.990;2022-12-18T05:50:19;-1.80;50.60
12769;DHT22;6448;48.916;8.990;2022-12-18T05:51:22;-1.80;50.60
12769;DHT22;6448;48.916;8.990;2022-12-18T05:52:23;-1.80;50.60
12769;DHT22;6448;48.916;8.990;2022-12-18T05:53:24;-1.80;50.60
12769;DHT22;6448;48.916;8.990;2022-12-18T05:54:27;-1.80;50.50
12769;DHT22;6448;48.916;8.990;2022-12-18T05:55:28;-1.80;50.50
12769;DHT22;6448;48.916;8.990;2022-12-18T05:56:29;-1.80;50.40
12769;DHT22;6448;48.916;8.990;2022-12-18T05:57:31;-1.80;50.40
12769;DHT22;6448;48.916;8.990;2022-12-18T05:58:33;-1.80;50.40
12769;DHT22;6448;48.916;8.990;2022-12-18T05:59:34;-1.80;50.50
12769;DHT22;6448;48.916;8.990;2022-12-18T06:00:37;-1.80;50.50
12769;DHT22;6448;48.916;8.990;2022-12-18T06:01:40;-1.80;50.50
12769;DHT22;6448;48.916;8.990;2022-12-18T06:02:41;-1.80;50.50
12769;DHT22;6448;48.916;8.990;2022-12-18T06:03:44;-1.80;50.50
12769;DHT22;6448;48.916;8.990;2022-12-18T06:04:45;-1.80;50.50
12769;DHT22;6448;48.916;8.990;2022-12-18T06:05:47;-1.80;50.50
12769;DHT22;6448;48.916;8.990;2022-12-18T06:06:48;-1.80;50.50
12769;DHT22;6448;48.916;8.990;2022-12-18T06:07:49;-1.80;50.50
12769;DHT22;6448;48.916;8.990;2022-12-18T06:08:51;-1.80;50.50
12769;DHT22;6448;48.916;8.990;2022-12-18T06:09:52;-1.80;50.50
12769;DHT22;6448;48.916;8.990;2022-12-18T06:10:53;-1.80;50.60
12769;DHT22;6448;48.916;8.990;2022-12-18T06:11:55;-1.80;50.50
12769;DHT22;6448;48.916;8.990;2022-12-18T06:12:56;-1.80;50.50
12769;DHT22;6448;48.916;8.990;2022-12-18T06:13:57;-1.80;50.40
12769;DHT22;6448;48.916;8.990;2022-12-18T06:14:58;-1.80;50.30
12769;DHT22;6448;48.916;8.990;2022-12-18T06:16:02;-1.80;50.30
12769;DHT22;6448;48.916;8.990;2022-12-18T06:17:03;-1.80;50.30
12769;DHT22;6448;48.916;8.990;2022-12-18T06:18:05;-1.80;50.20
12769;DHT22;6448;48.916;8.990;2022-12-18T06:19:07;-1.80;50.20
12769;DHT22;6448;48.916;8.990;2022-12-18T06:20:09;-1.80;50.20
12769;DHT22;6448;48.916;8.990;2022-12-18T06:21:10;-1.80;50.20
12769;DHT22;6448;48.916;8.990;2022-12-18T06:22:12;-1.80;50.10
12769;DHT22;6448;48.916;8.990;2022-12-18T06:23:12;-1.80;50.10
12769;DHT22;6448;48.916;8.990;2022-12-18T06:24:14;-1.90;50.00
12769;DHT22;6448;48.916;8.990;2022-12-18T06:25:15;-1.80;50.00
12769;DHT22;6448;48.916;8.990;2022-12-18T06:26:17;-1.80;50.00
12769;DHT22;6448;48.916;8.990;2022-12-18T06:27:18;-1.80;50.00
12769;DHT22;6448;48.916;8.990;2022-12-18T06:28:20;-1.80;50.00
12769;DHT22;6448;48.916;8.990;2022-12-18T06:29:21;-1.80;49.90
12769;DHT22;6448;48.916;8.990;2022-12-18T06:30:22;-1.80;49.70
12769;DHT22;6448;48.916;8.990;2022-12-18T06:31:23;-1.80;49.70
12769;DHT22;6448;48.916;8.990;2022-12-18T06:32:25;-1.90;49.60
12769;DHT22;6448;48.916;8.990;2022-12-18T06:33:27;-1.90;49.60
12769;DHT22;6448;48.916;8.990;2022-12-18T06:34:30;-1.90;49.50
12769;DHT22;6448;48.916;8.990;2022-12-18T06:35:32;-1.90;49.50
12769;DHT22;6448;48.916;8.990;2022-12-18T06:36:33;-1.90;49.50
12769;DHT22;6448;48.916;8.990;2022-12-18T06:37:34;-1.90;49.50
12769;DHT22;6448;48.916;8.990;2022-12-18T06:38:38;-1.90;49.60
12769;DHT22;6448;48.916;8.990;2022-12-18T06:39:39;-1.90;49.50
12769;DHT22;6448;48.916;8.990;2022-12-18T06:40:40;-1.90;49.50
12769;DHT22;6448;48.916;8.990;2022-12-18T06:41:41;-1.90;49.50
12769;DHT22;6448;48.916;8.990;2022-12-18T06:42:43;-1.90;49.50
12769;DHT22;6448;48.916;8.990;2022-12-18T06:43:44;-1.90;49.50
12769;DHT22;6448;48.916;8.990;2022-12-18T06:44:45;-1.90;49.50
12769;DHT22;6448;48.916;8.990;2022-12-18T06:45:46;-1.90;49.60
12769;DHT22;6448;48.916;8.990;2022-12-18T06:46:52;-1.90;49.60
12769;DHT22;6448;48.916;8.990;2022-12-18T06:47:54;-1.90;49.70
12769;DHT22;6448;48.916;8.990;2022-12-18T06:48:55;-1.90;49.70
12769;DHT22;6448;48.916;8.990;2022-12-18T06:49:58;-2.00;49.70
12769;DHT22;6448;48.916;8.990;2022-12-18T06:50:59;-1.90;49.70